sensor_id;sensor_type;location;lat;lon;timestamp;P1;durP1;ratioP1;P2;durP2;ratioP2
3563;SDS011;1796;52.388;13.096;2023-07-29T00:02:04;12.10;;;8.17;;
3563;SDS011;1796;52.388;13.096;2023-07-29T00:04:31;13.27;;;7.93;;
3563;SDS011;1796;52.388;13.096;2023-07-29T00:06:57;9.27;;;8.37;;
3563;SDS011;1796;52.388;13.096;2023-07-29T00:09:26;10.37;;;8.30;;
3563;SDS011;1796;52.388;13.096;2023-07-29T00:11:52;10.23;;;7.77;;
3563;SDS011;1796;52.388;13.096;2023-07-29T00:14:19;10.27;;;7.70;;
3563;SDS011;1796;52.388;13.096;2023-07-29T00:16:46;18.30;;;8.60;;
3563;SDS011;1796;52.388;13.096;2023-07-29T00:19:13;12.67;;;8.60;;
3563;SDS011;1796;52.388;13.096;2023-07-29T00:21:40;9.60;;;7.30;;
3563;SDS011;1796;52.388;13.096;2023-07-29T00:24:07;11.17;;;8.00;;
3563;SDS011;1796;52.388;13.096;2023-07-29T00:26:35;11.07;;;7.97;;
3563;SDS011;1796;52.388;13.096;2023-07-29T00:29:02;10.20;;;8.07;;
3563;SDS011;1796;52.388;13.096;2023-07-29T00:31:29;11.97;;;7.77;;
3563;SDS011;1796;52.388;13.096;2023-07-29T00:33:55;12.03;;;8.27;;
3563;SDS011;1796;52.388;13.096;2023-07-29T00:36:23;10.50;;;8.57;;
3563;SDS011;1796;52.388;13.096;2023-07-29T00:38:50;10.23;;;8.33;;
3563;SDS011;1796;52.388;13.096;2023-07-29T00:41:18;10.97;;;8.27;;
3563;SDS011;1796;52.388;13.096;2023-07-29T00:43:46;14.10;;;8.87;;
3563;SDS011;1796;52.388;13.096;2023-07-29T00:46:13;11.20;;;8.70;;
3563;SDS011;1796;52.388;13.096;2023-07-29T00:48:41;11.73;;;8.37;;
3563;SDS011;1796;52.388;13.096;2023-07-29T00:51:08;11.73;;;8.30;;
3563;SDS011;1796;52.388;13.096;2023-07-29T00:53:35;11.87;;;9.33;;
3563;SDS011;1796;52.388;13.096;2023-07-29T00:56:02;12.87;;;8.90;;
3563;SDS011;1796;52.388;13.096;2023-07-29T00:58:29;9.07;;;8.17;;
3563;SDS011;1796;52.388;13.096;2023-07-29T01:00:57;15.63;;;7.70;;
3563;SDS011;1796;52.388;13.096;2023-07-29T01:03:24;11.13;;;8.20;;
3563;SDS011;1796;52.388;13.096;2023-07-29T01:05:56;13.17;;;9.27;;
3563;SDS011;1796;52.388;13.096;2023-07-29T01:08:33;14.10;;;8.30;;
3563;SDS011;1796;52.388;13.096;2023-07-29T01:11:11;10.07;;;8.57;;
3563;SDS011;1796;52.388;13.096;2023-07-29T01:13:48;11.80;;;8.10;;
3563;SDS011;1796;52.388;13.096;2023-07-29T01:16:21;13.87;;;8.23;;
3563;SDS011;1796;52.388;13.096;2023-07-29T01:18:56;8.27;;;7.47;;
3563;SDS011;1796;52.388;13.096;2023-07-29T01:21:28;11.50;;;8.70;;
3563;SDS011;1796;52.388;13.096;2023-07-29T01:23:59;8.97;;;8.07;;
3563;SDS011;1796;52.388;13.096;2023-07-29T01:26:26;10.27;;;8.63;;
3563;SDS011;1796;52.388;13.096;2023-07-29T01:28:54;9.37;;;8.27;;
3563;SDS011;1796;52.388;13.096;2023-07-29T01:31:23;14.17;;;10.10;;
3563;SDS011;1796;52.388;13.096;2023-07-29T01:33:57;15.00;;;8.27;;
3563;SDS011;1796;52.388;13.096;2023-07-29T01:36:28;9.20;;;7.70;;
3563;SDS011;1796;52.388;13.096;2023-07-29T01:39:00;10.27;;;9.17;;
3563;SDS011;1796;52.388;13.096;2023-07-29T01:41:28;8.93;;;7.90;;
3563;SDS011;1796;52.388;13.096;2023-07-29T01:43:56;12.30;;;8.67;;
3563;SDS011;1796;52.388;13.096;2023-07-29T01:46:23;17.20;;;8.60;;
3563;SDS011;1796;52.388;13.096;2023-07-29T01:48:50;14.93;;;9.80;;
3563;SDS011;1796;52.388;13.096;2023-07-29T01:51:17;13.63;;;9.50;;
3563;SDS011;1796;52.388;13.096;2023-07-29T01:53:43;13.07;;;8.47;;
3563;SDS011;1796;52.388;13.096;2023-07-29T01:56:12;10.93;;;9.40;;
3563;SDS011;1796;52.388;13.096;2023-07-29T01:58:38;9.53;;;8.53;;
3563;SDS011;1796;52.388;13.096;2023-07-29T02:01:05;12.13;;;9.13;;
3563;SDS011;1796;52.388;13.096;2023-07-29T02:03:32;14.10;;;10.00;;
3563;SDS011;1796;52.388;13.096;2023-07-29T02:05:59;12.67;;;8.87;;
3563;SDS011;1796;52.388;13.096;2023-07-29T02:08:26;14.37;;;9.87;;
3563;SDS011;1796;52.388;13.096;2023-07-29T02:10:53;11.30;;;8.80;;
3563;SDS011;1796;52.388;13.096;2023-07-29T02:13:21;16.60;;;9.00;;
3563;SDS011;1796;52.388;13.096;2023-07-29T02:15:48;14.60;;;8.57;;
3563;SDS011;1796;52.388;13.096;2023-07-29T02:18:15;11.80;;;9.30;;
3563;SDS011;1796;52.388;13.096;2023-07-29T02:20:41;9.97;;;8.20;;
3563;SDS011;1796;52.388;13.096;2023-07-29T02:23:14;17.53;;;8.43;;
3563;SDS011;1796;52.388;13.096;2023-07-29T02:25:41;12.77;;;9.30;;
3563;SDS011;1796;52.388;13.096;2023-07-29T02:28:08;13.07;;;9.00;;
3563;SDS011;1796;52.388;13.096;2023-07-29T02:30:36;11.23;;;8.67;;
3563;SDS011;1796;52.388;13.096;2023-07-29T02:33:03;12.03;;;9.80;;
3563;SDS011;1796;52.388;13.096;2023-07-29T02:35:29;13.63;;;9.10;;
3563;SDS011;1796;52.388;13.096;2023-07-29T02:37:56;10.43;;;8.30;;
3563;SDS011;1796;52.388;13.096;2023-07-29T02:40:23;12.33;;;8.83;;
3563;SDS011;1796;52.388;13.096;2023-07-29T02:42:51;10.93;;;8.70;;
3563;SDS011;1796;52.388;13.096;2023-07-29T02:45:18;24.63;;;8.20;;
3563;SDS011;1796;52.388;13.096;2023-07-29T02:47:47;9.47;;;7.90;;
3563;SDS011;1796;52.388;13.096;2023-07-29T02:50:13;13.47;;;8.27;;
3563;SDS011;1796;52.388;13.096;2023-07-29T02:52:40;9.63;;;8.20;;
3563;SDS011;1796;52.388;13.096;2023-07-29T02:55:07;11.33;;;8.87;;
3563;SDS011;1796;52.388;13.096;2023-07-29T02:57:34;20.70;;;8.87;;
3563;SDS011;1796;52.388;13.096;2023-07-29T03:00:01;11.40;;;8.70;;
3563;SDS011;1796;52.388;13.096;2023-07-29T03:02:29;9.90;;;7.97;;
3563;SDS011;1796;52.388;13.096;2023-07-29T03:04:57;11.10;;;8.70;;
3563;SDS011;1796;52.388;13.096;2023-07-29T03:07:24;9.80;;;8.80;;
3563;SDS011;1796;52.388;13.096;2023-07-29T03:09:51;14.67;;;9.43;;
3563;SDS011;1796;52.388;13.096;2023-07-29T03:12:17;12.30;;;9.07;;
3563;SDS011;1796;52.388;13.096;2023-07-29T03:14:47;11.67;;;8.80;;
3563;SDS011;1796;52.388;13.096;2023-07-29T03:17:14;10.50;;;8.40;;
3563;SDS011;1796;52.388;13.096;2023-07-29T03:19:40;8.77;;;7.87;;
3563;SDS011;1796;52.388;13.096;2023-07-29T03:22:09;10.40;;;7.40;;
3563;SDS011;1796;52.388;13.096;2023-07-29T03:24:35;8.87;;;7.57;;
3563;SDS011;1796;52.388;13.096;2023-07-29T03:27:02;8.80;;;7.90;;
3563;SDS011;1796;52.388;13.096;2023-07-29T03:29:30;11.33;;;8.97;;
3563;SDS011;1796;52.388;13.096;2023-07-29T03:31:57;13.40;;;9.10;;
3563;SDS011;1796;52.388;13.096;2023-07-29T03:34:24;17.53;;;8.60;;
3563;SDS011;1796;52.388;13.096;2023-07-29T03:36:51;11.13;;;8.17;;
3563;SDS011;1796;52.388;13.096;2023-07-29T03:39:19;12.50;;;9.20;;
3563;SDS011;1796;52.388;13.096;2023-07-29T03:41:46;9.60;;;8.60;;
3563;SDS011;1796;52.388;13.096;2023-07-29T03:44:13;11.30;;;8.87;;
3563;SDS011;1796;52.388;13.096;2023-07-29T03:46:39;10.27;;;8.13;;
3563;SDS011;1796;52.388;13.096;2023-07-29T03:49:06;9.47;;;7.93;;
3563;SDS011;1796;52.388;13.096;2023-07-29T03:51:33;10.07;;;8.40;;
3563;SDS011;1796;52.388;13.096;2023-07-29T03:54:00;10.67;;;8.77;;
3563;SDS011;1796;52.388;13.096;2023-07-29T03:56:28;15.53;;;9.43;;
3563;SDS011;1796;52.388;13.096;2023-07-29T03:59:01;10.83;;;7.60;;
3563;SDS011;1796;52.388;13.096;2023-07-29T04:01:29;14.80;;;8.87;;
3563;SDS011;1796;52.388;13.096;2023-07-29T04:03:56;9.23;;;8.17;;
3563;SDS011;1796;52.388;13.096;2023-07-29T04:06:22;9.53;;;7.87;;
3563;SDS011;1796;52.388;13.096;2023-07-29T04:08:49;14.90;;;9.00;;
3563;SDS011;1796;52.388;13.096;2023-07-29T04:11:16;17.47;;;8.87;;
3563;SDS011;1796;52.388;13.096;2023-07-29T04:13:45;12.93;;;9.50;;
3563;SDS011;1796;52.388;13.096;2023-07-29T04:16:11;12.13;;;8.60;;
3563;SDS011;1796;52.388;13.096;2023-07-29T04:18:38;7.93;;;7.23;;
3563;SDS011;1796;52.388;13.096;2023-07-29T04:21:05;12.70;;;6.83;;
3563;SDS011;1796;52.388;13.096;2023-07-29T04:23:32;7.80;;;7.00;;
3563;SDS011;1796;52.388;13.096;2023-07-29T04:26:00;8.00;;;7.20;;
3563;SDS011;1796;52.388;13.096;2023-07-29T04:28:27;10.07;;;6.60;;
3563;SDS011;1796;52.388;13.096;2023-07-29T04:30:55;8.57;;;7.77;;
3563;SDS011;1796;52.388;13.096;2023-07-29T04:33:22;9.80;;;8.83;;
3563;SDS011;1796;52.388;13.096;2023-07-29T04:35:48;12.43;;;7.27;;
3563;SDS011;1796;52.388;13.096;2023-07-29T04:38:15;12.10;;;6.60;;
3563;SDS011;1796;52.388;13.096;2023-07-29T04:40:42;6.97;;;6.43;;
3563;SDS011;1796;52.388;13.096;2023-07-29T04:43:09;8.03;;;5.00;;
3563;SDS011;1796;52.388;13.096;2023-07-29T04:45:36;5.80;;;5.30;;
3563;SDS011;1796;52.388;13.096;2023-07-29T04:48:09;9.20;;;5.13;;
3563;SDS011;1796;52.388;13.096;2023-07-29T04:50:36;4.93;;;4.60;;
3563;SDS011;1796;52.388;13.096;2023-07-29T04:53:03;5.03;;;4.53;;
3563;SDS011;1796;52.388;13.096;2023-07-29T04:55:29;5.43;;;5.00;;
3563;SDS011;1796;52.388;13.096;2023-07-29T04:57:56;7.60;;;4.53;;
3563;SDS011;1796;52.388;13.096;2023-07-29T05:00:25;4.67;;;4.40;;
3563;SDS011;1796;52.388;13.096;2023-07-29T05:02:52;5.27;;;4.83;;
3563;SDS011;1796;52.388;13.096;2023-07-29T05:05:20;5.27;;;4.87;;
3563;SDS011;1796;52.388;13.096;2023-07-29T05:07:47;5.37;;;4.90;;
3563;SDS011;1796;52.388;13.096;2023-07-29T05:10:13;6.63;;;5.63;;
3563;SDS011;1796;52.388;13.096;2023-07-29T05:12:41;5.87;;;5.23;;
3563;SDS011;1796;52.388;13.096;2023-07-29T05:15:09;11.83;;;5.80;;
3563;SDS011;1796;52.388;13.096;2023-07-29T05:17:36;5.57;;;5.27;;
3563;SDS011;1796;52.388;13.096;2023-07-29T05:20:03;6.07;;;5.67;;
3563;SDS011;1796;52.388;13.096;2023-07-29T05:22:32;4.73;;;4.40;;
3563;SDS011;1796;52.388;13.096;2023-07-29T05:24:59;4.63;;;4.33;;
3563;SDS011;1796;52.388;13.096;2023-07-29T05:27:26;6.70;;;5.20;;
3563;SDS011;1796;52.388;13.096;2023-07-29T05:29:53;4.90;;;4.50;;
3563;SDS011;1796;52.388;13.096;2023-07-29T05:32:19;5.60;;;5.20;;
3563;SDS011;1796;52.388;13.096;2023-07-29T05:34:46;5.37;;;4.97;;
3563;SDS011;1796;52.388;13.096;2023-07-29T05:37:13;5.27;;;4.87;;
3563;SDS011;1796;52.388;13.096;2023-07-29T05:39:41;5.00;;;4.50;;
3563;SDS011;1796;52.388;13.096;2023-07-29T05:42:08;5.40;;;4.77;;
3563;SDS011;1796;52.388;13.096;2023-07-29T05:44:35;6.10;;;4.87;;
3563;SDS011;1796;52.388;13.096;2023-07-29T05:47:02;4.93;;;4.53;;
3563;SDS011;1796;52.388;13.096;2023-07-29T05:49:29;8.97;;;5.30;;
3563;SDS011;1796;52.388;13.096;2023-07-29T05:51:56;5.33;;;4.83;;
3563;SDS011;1796;52.388;13.096;2023-07-29T05:54:23;8.47;;;4.87;;
3563;SDS011;1796;52.388;13.096;2023-07-29T05:56:51;8.10;;;4.50;;
3563;SDS011;1796;52.388;13.096;2023-07-29T05:59:18;4.90;;;4.60;;
3563;SDS011;1796;52.388;13.096;2023-07-29T06:01:45;5.10;;;4.60;;
3563;SDS011;1796;52.388;13.096;2023-07-29T06:04:11;5.47;;;4.93;;
3563;SDS011;1796;52.388;13.096;2023-07-29T06:06:38;5.47;;;3.90;;
3563;SDS011;1796;52.388;13.096;2023-07-29T06:09:05;4.57;;;3.87;;
3563;SDS011;1796;52.388;13.096;2023-07-29T06:11:32;5.23;;;3.63;;
3563;SDS011;1796;52.388;13.096;2023-07-29T06:14:00;6.00;;;4.27;;
3563;SDS011;1796;52.388;13.096;2023-07-29T06:16:27;5.30;;;3.40;;
3563;SDS011;1796;52.388;13.096;2023-07-29T06:18:54;3.57;;;3.27;;
3563;SDS011;1796;52.388;13.096;2023-07-29T06:21:21;2.70;;;2.60;;
3563;SDS011;1796;52.388;13.096;2023-07-29T06:23:47;3.47;;;3.37;;
3563;SDS011;1796;52.388;13.096;2023-07-29T06:26:14;3.20;;;2.90;;
3563;SDS011;1796;52.388;13.096;2023-07-29T06:28:41;3.20;;;3.10;;
3563;SDS011;1796;52.388;13.096;2023-07-29T06:31:10;3.43;;;3.10;;
3563;SDS011;1796;52.388;13.096;2023-07-29T06:33:36;2.77;;;2.67;;
3563;SDS011;1796;52.388;13.096;2023-07-29T06:36:04;3.00;;;2.83;;
3563;SDS011;1796;52.388;13.096;2023-07-29T06:38:31;3.67;;;2.07;;
3563;SDS011;1796;52.388;13.096;2023-07-29T06:40:58;1.97;;;1.97;;
3563;SDS011;1796;52.388;13.096;2023-07-29T06:43:24;2.30;;;2.20;;
3563;SDS011;1796;52.388;13.096;2023-07-29T06:45:51;2.30;;;2.10;;
3563;SDS011;1796;52.388;13.096;2023-07-29T06:48:20;2.17;;;2.07;;
3563;SDS011;1796;52.388;13.096;2023-07-29T06:50:47;2.40;;;2.30;;
3563;SDS011;1796;52.388;13.096;2023-07-29T06:53:15;2.40;;;2.20;;
3563;SDS011;1796;52.388;13.096;2023-07-29T06:55:42;2.20;;;2.20;;
3563;SDS011;1796;52.388;13.096;2023-07-29T06:58:08;3.13;;;2.00;;
3563;SDS011;1796;52.388;13.096;2023-07-29T07:00:35;2.30;;;2.10;;
3563;SDS011;1796;52.388;13.096;2023-07-29T07:03:02;2.30;;;1.77;;
3563;SDS011;1796;52.388;13.096;2023-07-29T07:05:30;2.53;;;2.33;;
3563;SDS011;1796;52.388;13.096;2023-07-29T07:07:58;2.30;;;2.20;;
3563;SDS011;1796;52.388;13.096;2023-07-29T07:10:25;5.00;;;1.93;;
3563;SDS011;1796;52.388;13.096;2023-07-29T07:12:52;1.50;;;1.50;;
3563;SDS011;1796;52.388;13.096;2023-07-29T07:15:19;6.40;;;2.10;;
3563;SDS011;1796;52.388;13.096;2023-07-29T07:17:45;3.07;;;2.03;;
3563;SDS011;1796;52.388;13.096;2023-07-29T07:20:12;2.10;;;1.60;;
3563;SDS011;1796;52.388;13.096;2023-07-29T07:22:41;1.90;;;1.87;;
3563;SDS011;1796;52.388;13.096;2023-07-29T07:25:08;1.93;;;1.80;;
3563;SDS011;1796;52.388;13.096;2023-07-29T07:27:35;1.93;;;1.90;;
3563;SDS011;1796;52.388;13.096;2023-07-29T07:30:02;1.83;;;1.70;;
3563;SDS011;1796;52.388;13.096;2023-07-29T07:32:30;7.13;;;2.60;;
3563;SDS011;1796;52.388;13.096;2023-07-29T07:34:56;1.60;;;1.50;;
3563;SDS011;1796;52.388;13.096;2023-07-29T07:37:23;4.27;;;1.83;;
3563;SDS011;1796;52.388;13.096;2023-07-29T07:39:52;1.60;;;1.60;;
3563;SDS011;1796;52.388;13.096;2023-07-29T07:42:18;1.60;;;1.60;;
3563;SDS011;1796;52.388;13.096;2023-07-29T07:44:45;1.80;;;1.70;;
3563;SDS011;1796;52.388;13.096;2023-07-29T07:47:12;1.40;;;1.30;;
3563;SDS011;1796;52.388;13.096;2023-07-29T07:49:39;1.63;;;1.63;;
3563;SDS011;1796;52.388;13.096;2023-07-29T07:52:06;1.80;;;1.70;;
3563;SDS011;1796;52.388;13.096;2023-07-29T07:54:33;4.90;;;1.70;;
3563;SDS011;1796;52.388;13.096;2023-07-29T07:57:01;1.20;;;1.20;;
3563;SDS011;1796;52.388;13.096;2023-07-29T07:59:28;1.30;;;1.30;;
3563;SDS011;1796;52.388;13.096;2023-07-29T08:01:55;1.77;;;1.67;;
3563;SDS011;1796;52.388;13.096;2023-07-29T08:04:22;1.70;;;1.60;;
3563;SDS011;1796;52.388;13.096;2023-07-29T08:06:49;2.10;;;1.70;;
3563;SDS011;1796;52.388;13.096;2023-07-29T08:09:16;1.67;;;1.53;;
3563;SDS011;1796;52.388;13.096;2023-07-29T08:11:43;2.87;;;1.40;;
3563;SDS011;1796;52.388;13.096;2023-07-29T08:14:11;1.60;;;1.53;;
3563;SDS011;1796;52.388;13.096;2023-07-29T08:16:38;2.27;;;2.17;;
3563;SDS011;1796;52.388;13.096;2023-07-29T08:19:05;2.10;;;2.10;;
3563;SDS011;1796;52.388;13.096;2023-07-29T08:21:32;2.63;;;2.53;;
3563;SDS011;1796;52.388;13.096;2023-07-29T08:23:59;2.00;;;2.00;;
3563;SDS011;1796;52.388;13.096;2023-07-29T08:26:25;2.23;;;2.13;;
3563;SDS011;1796;52.388;13.096;2023-07-29T08:28:52;1.57;;;1.57;;
3563;SDS011;1796;52.388;13.096;2023-07-29T08:31:21;1.83;;;1.73;;
3563;SDS011;1796;52.388;13.096;2023-07-29T08:33:47;1.63;;;1.50;;
3563;SDS011;1796;52.388;13.096;2023-07-29T08:36:14;1.70;;;1.70;;
3563;SDS011;1796;52.388;13.096;2023-07-29T08:38:42;1.80;;;1.70;;
3563;SDS011;1796;52.388;13.096;2023-07-29T08:41:10;3.23;;;2.00;;
3563;SDS011;1796;52.388;13.096;2023-07-29T08:43:41;2.30;;;1.60;;
3563;SDS011;1796;52.388;13.096;2023-07-29T08:46:14;1.90;;;1.80;;
3563;SDS011;1796;52.388;13.096;2023-07-29T08:48:43;2.70;;;1.77;;
3563;SDS011;1796;52.388;13.096;2023-07-29T08:51:10;1.70;;;1.60;;
3563;SDS011;1796;52.388;13.096;2023-07-29T08:53:39;1.83;;;1.40;;
3563;SDS011;1796;52.388;13.096;2023-07-29T08:56:06;1.70;;;1.60;;
3563;SDS011;1796;52.388;13.096;2023-07-29T08:58:33;2.00;;;1.60;;
3563;SDS011;1796;52.388;13.096;2023-07-29T09:01:01;1.80;;;1.67;;
3563;SDS011;1796;52.388;13.096;2023-07-29T09:03:28;1.60;;;1.60;;
3563;SDS011;1796;52.388;13.096;2023-07-29T09:05:56;1.73;;;1.63;;
3563;SDS011;1796;52.388;13.096;2023-07-29T09:08:24;1.60;;;1.60;;
3563;SDS011;1796;52.388;13.096;2023-07-29T09:10:53;1.70;;;1.70;;
3563;SDS011;1796;52.388;13.096;2023-07-29T09:13:20;2.60;;;1.80;;
3563;SDS011;1796;52.388;13.096;2023-07-29T09:15:47;1.90;;;1.80;;
3563;SDS011;1796;52.388;13.096;2023-07-29T09:18:15;1.80;;;1.70;;
3563;SDS011;1796;52.388;13.096;2023-07-29T09:20:42;2.50;;;1.50;;
3563;SDS011;1796;52.388;13.096;2023-07-29T09:23:11;4.00;;;1.80;;
3563;SDS011;1796;52.388;13.096;2023-07-29T09:25:38;1.80;;;1.70;;
3563;SDS011;1796;52.388;13.096;2023-07-29T09:28:09;2.00;;;1.90;;
3563;SDS011;1796;52.388;13.096;2023-07-29T09:30:37;2.80;;;1.90;;
3563;SDS011;1796;52.388;13.096;2023-07-29T09:33:04;3.93;;;1.70;;
3563;SDS011;1796;52.388;13.096;2023-07-29T09:35:32;2.23;;;1.43;;
3563;SDS011;1796;52.388;13.096;2023-07-29T09:38:01;1.50;;;1.50;;
3563;SDS011;1796;52.388;13.096;2023-07-29T09:40:33;1.40;;;1.40;;
3563;SDS011;1796;52.388;13.096;2023-07-29T09:43:01;3.03;;;1.50;;
3563;SDS011;1796;52.388;13.096;2023-07-29T09:45:29;1.50;;;1.40;;
3563;SDS011;1796;52.388;13.096;2023-07-29T09:47:57;6.83;;;1.63;;
3563;SDS011;1796;52.388;13.096;2023-07-29T09:50:24;1.90;;;1.80;;
3563;SDS011;1796;52.388;13.096;2023-07-29T09:52:52;2.60;;;1.20;;
3563;SDS011;1796;52.388;13.096;2023-07-29T09:55:21;2.87;;;1.40;;
3563;SDS011;1796;52.388;13.096;2023-07-29T09:57:54;6.83;;;1.70;;
3563;SDS011;1796;52.388;13.096;2023-07-29T10:00:25;1.60;;;1.53;;
3563;SDS011;1796;52.388;13.096;2023-07-29T10:02:52;1.40;;;1.40;;
3563;SDS011;1796;52.388;13.096;2023-07-29T10:05:20;1.80;;;1.70;;
3563;SDS011;1796;52.388;13.096;2023-07-29T10:07:47;8.07;;;1.90;;
3563;SDS011;1796;52.388;13.096;2023-07-29T10:10:15;1.97;;;1.87;;
3563;SDS011;1796;52.388;13.096;2023-07-29T10:12:43;1.50;;;1.40;;
3563;SDS011;1796;52.388;13.096;2023-07-29T10:15:12;1.80;;;1.77;;
3563;SDS011;1796;52.388;13.096;2023-07-29T10:17:40;2.13;;;1.60;;
3563;SDS011;1796;52.388;13.096;2023-07-29T10:20:08;5.27;;;1.70;;
3563;SDS011;1796;52.388;13.096;2023-07-29T10:22:37;1.53;;;1.43;;
3563;SDS011;1796;52.388;13.096;2023-07-29T10:25:07;2.70;;;1.80;;
3563;SDS011;1796;52.388;13.096;2023-07-29T10:27:39;1.63;;;1.43;;
3563;SDS011;1796;52.388;13.096;2023-07-29T10:30:10;1.50;;;1.40;;
3563;SDS011;1796;52.388;13.096;2023-07-29T10:32:41;2.07;;;1.37;;
3563;SDS011;1796;52.388;13.096;2023-07-29T10:35:09;1.60;;;1.50;;
3563;SDS011;1796;52.388;13.096;2023-07-29T10:37:37;5.20;;;1.73;;
3563;SDS011;1796;52.388;13.096;2023-07-29T10:40:06;1.70;;;1.70;;
3563;SDS011;1796;52.388;13.096;2023-07-29T10:42:34;4.03;;;2.20;;
3563;SDS011;1796;52.388;13.096;2023-07-29T10:47:54;2.30;;;2.20;;
3563;SDS011;1796;52.388;13.096;2023-07-29T10:50:21;5.40;;;2.20;;
3563;SDS011;1796;52.388;13.096;2023-07-29T10:52:49;2.57;;;2.37;;
3563;SDS011;1796;52.388;13.096;2023-07-29T10:55:24;2.90;;;2.63;;
3563;SDS011;1796;52.388;13.096;2023-07-29T10:57:53;3.83;;;3.53;;
3563;SDS011;1796;52.388;13.096;2023-07-29T11:00:34;3.93;;;2.80;;
3563;SDS011;1796;52.388;13.096;2023-07-29T11:03:04;4.53;;;3.27;;
3563;SDS011;1796;52.388;13.096;2023-07-29T11:05:43;5.97;;;3.33;;
3563;SDS011;1796;52.388;13.096;2023-07-29T11:08:15;5.37;;;3.43;;
3563;SDS011;1796;52.388;13.096;2023-07-29T11:10:59;3.67;;;3.37;;
3563;SDS011;1796;52.388;13.096;2023-07-29T11:13:28;4.80;;;3.27;;
3563;SDS011;1796;52.388;13.096;2023-07-29T11:15:56;4.63;;;3.80;;
3563;SDS011;1796;52.388;13.096;2023-07-29T11:18:27;3.37;;;2.90;;
3563;SDS011;1796;52.388;13.096;2023-07-29T11:20:56;3.00;;;2.80;;
3563;SDS011;1796;52.388;13.096;2023-07-29T11:23:28;36.83;;;4.57;;
3563;SDS011;1796;52.388;13.096;2023-07-29T11:25:58;5.00;;;2.90;;
3563;SDS011;1796;52.388;13.096;2023-07-29T11:28:26;3.47;;;3.00;;
3563;SDS011;1796;52.388;13.096;2023-07-29T11:30:54;4.43;;;3.90;;
3563;SDS011;1796;52.388;13.096;2023-07-29T11:33:23;3.50;;;3.20;;
3563;SDS011;1796;52.388;13.096;2023-07-29T11:35:52;4.57;;;3.70;;
3563;SDS011;1796;52.388;13.096;2023-07-29T11:38:19;4.03;;;3.73;;
3563;SDS011;1796;52.388;13.096;2023-07-29T11:40:54;3.87;;;3.57;;
3563;SDS011;1796;52.388;13.096;2023-07-29T11:43:22;4.47;;;4.13;;
3563;SDS011;1796;52.388;13.096;2023-07-29T11:45:49;6.00;;;3.47;;
3563;SDS011;1796;52.388;13.096;2023-07-29T11:48:17;6.13;;;3.83;;
3563;SDS011;1796;52.388;13.096;2023-07-29T11:50:44;11.80;;;4.20;;
3563;SDS011;1796;52.388;13.096;2023-07-29T11:53:13;6.33;;;3.43;;
3563;SDS011;1796;52.388;13.096;2023-07-29T11:55:40;4.30;;;3.93;;
3563;SDS011;1796;52.388;13.096;2023-07-29T11:58:07;4.13;;;3.60;;
3563;SDS011;1796;52.388;13.096;2023-07-29T12:00:34;5.77;;;3.90;;
3563;SDS011;1796;52.388;13.096;2023-07-29T12:03:01;4.10;;;3.70;;
3563;SDS011;1796;52.388;13.096;2023-07-29T12:05:28;12.90;;;3.50;;
3563;SDS011;1796;52.388;13.096;2023-07-29T12:07:56;3.07;;;2.80;;
3563;SDS011;1796;52.388;13.096;2023-07-29T12:10:25;3.80;;;3.53;;
3563;SDS011;1796;52.388;13.096;2023-07-29T12:12:52;4.00;;;3.60;;
3563;SDS011;1796;52.388;13.096;2023-07-29T12:15:22;13.37;;;3.20;;
3563;SDS011;1796;52.388;13.096;2023-07-29T12:17:52;3.43;;;3.20;;
3563;SDS011;1796;52.388;13.096;2023-07-29T12:20:21;5.03;;;3.40;;
3563;SDS011;1796;52.388;13.096;2023-07-29T12:22:51;4.10;;;3.80;;
3563;SDS011;1796;52.388;13.096;2023-07-29T12:25:19;4.43;;;3.60;;
3563;SDS011;1796;52.388;13.096;2023-07-29T12:27:47;3.27;;;3.07;;
3563;SDS011;1796;52.388;13.096;2023-07-29T12:30:14;3.33;;;3.03;;
3563;SDS011;1796;52.388;13.096;2023-07-29T12:32:45;2.90;;;2.60;;
3563;SDS011;1796;52.388;13.096;2023-07-29T12:35:13;2.90;;;2.70;;
3563;SDS011;1796;52.388;13.096;2023-07-29T12:37:40;1.90;;;1.80;;
3563;SDS011;1796;52.388;13.096;2023-07-29T12:40:08;1.90;;;1.80;;
3563;SDS011;1796;52.388;13.096;2023-07-29T12:42:48;3.67;;;1.87;;
3563;SDS011;1796;52.388;13.096;2023-07-29T12:45:16;4.90;;;1.93;;
3563;SDS011;1796;52.388;13.096;2023-07-29T12:47:43;1.60;;;1.50;;
3563;SDS011;1796;52.388;13.096;2023-07-29T12:50:10;6.87;;;2.20;;
3563;SDS011;1796;52.388;13.096;2023-07-29T12:52:37;2.37;;;2.17;;
3563;SDS011;1796;52.388;13.096;2023-07-29T12:55:05;1.93;;;1.93;;
3563;SDS011;1796;52.388;13.096;2023-07-29T12:57:33;2.20;;;2.00;;
3563;SDS011;1796;52.388;13.096;2023-07-29T13:00:02;2.70;;;2.27;;
3563;SDS011;1796;52.388;13.096;2023-07-29T13:02:29;2.90;;;2.70;;
3563;SDS011;1796;52.388;13.096;2023-07-29T13:04:57;4.00;;;2.27;;
3563;SDS011;1796;52.388;13.096;2023-07-29T13:07:24;2.87;;;2.77;;
3563;SDS011;1796;52.388;13.096;2023-07-29T13:09:51;5.90;;;2.37;;
3563;SDS011;1796;52.388;13.096;2023-07-29T13:12:18;2.20;;;2.10;;
3563;SDS011;1796;52.388;13.096;2023-07-29T13:14:44;3.63;;;2.70;;
3563;SDS011;1796;52.388;13.096;2023-07-29T13:17:13;3.80;;;2.10;;
3563;SDS011;1796;52.388;13.096;2023-07-29T13:19:39;2.60;;;2.40;;
3563;SDS011;1796;52.388;13.096;2023-07-29T13:22:06;3.03;;;2.60;;
3563;SDS011;1796;52.388;13.096;2023-07-29T13:24:33;3.17;;;2.97;;
3563;SDS011;1796;52.388;13.096;2023-07-29T13:27:00;2.83;;;2.63;;
3563;SDS011;1796;52.388;13.096;2023-07-29T13:29:27;2.20;;;2.10;;
3563;SDS011;1796;52.388;13.096;2023-07-29T13:31:54;2.90;;;2.50;;
3563;SDS011;1796;52.388;13.096;2023-07-29T13:34:22;3.33;;;3.13;;
3563;SDS011;1796;52.388;13.096;2023-07-29T13:36:49;2.10;;;1.90;;
3563;SDS011;1796;52.388;13.096;2023-07-29T13:39:15;1.87;;;1.77;;
3563;SDS011;1796;52.388;13.096;2023-07-29T13:41:42;2.03;;;1.93;;
3563;SDS011;1796;52.388;13.096;2023-07-29T13:44:09;2.63;;;1.30;;
3563;SDS011;1796;52.388;13.096;2023-07-29T13:46:36;2.00;;;1.67;;
3563;SDS011;1796;52.388;13.096;2023-07-29T13:49:03;3.43;;;1.80;;
3563;SDS011;1796;52.388;13.096;2023-07-29T13:51:31;1.93;;;1.63;;
3563;SDS011;1796;52.388;13.096;2023-07-29T13:53:58;1.50;;;1.50;;
3563;SDS011;1796;52.388;13.096;2023-07-29T13:56:25;1.83;;;1.53;;
3563;SDS011;1796;52.388;13.096;2023-07-29T13:58:52;2.43;;;1.60;;
3563;SDS011;1796;52.388;13.096;2023-07-29T14:01:19;2.23;;;1.43;;
3563;SDS011;1796;52.388;13.096;2023-07-29T14:03:45;1.27;;;1.27;;
3563;SDS011;1796;52.388;13.096;2023-07-29T14:06:12;1.60;;;1.50;;
3563;SDS011;1796;52.388;13.096;2023-07-29T14:08:40;3.43;;;1.77;;
3563;SDS011;1796;52.388;13.096;2023-07-29T14:11:07;9.50;;;1.77;;
3563;SDS011;1796;52.388;13.096;2023-07-29T14:13:34;1.83;;;1.73;;
3563;SDS011;1796;52.388;13.096;2023-07-29T14:16:01;2.80;;;1.40;;
3563;SDS011;1796;52.388;13.096;2023-07-29T14:18:28;1.50;;;1.33;;
3563;SDS011;1796;52.388;13.096;2023-07-29T14:20:56;3.17;;;1.60;;
3563;SDS011;1796;52.388;13.096;2023-07-29T14:23:23;1.47;;;1.30;;
3563;SDS011;1796;52.388;13.096;2023-07-29T14:25:51;6.40;;;1.80;;
3563;SDS011;1796;52.388;13.096;2023-07-29T14:28:18;1.60;;;1.50;;
3563;SDS011;1796;52.388;13.096;2023-07-29T14:30:45;1.87;;;1.60;;
3563;SDS011;1796;52.388;13.096;2023-07-29T14:33:12;1.37;;;1.30;;
3563;SDS011;1796;52.388;13.096;2023-07-29T14:35:39;3.03;;;1.27;;
3563;SDS011;1796;52.388;13.096;2023-07-29T14:38:06;2.33;;;1.50;;
3563;SDS011;1796;52.388;13.096;2023-07-29T14:40:33;4.17;;;1.30;;
3563;SDS011;1796;52.388;13.096;2023-07-29T14:43:01;1.10;;;1.10;;
3563;SDS011;1796;52.388;13.096;2023-07-29T14:45:28;2.40;;;1.40;;
3563;SDS011;1796;52.388;13.096;2023-07-29T14:47:55;1.50;;;1.50;;
3563;SDS011;1796;52.388;13.096;2023-07-29T14:50:22;1.40;;;1.40;;
3563;SDS011;1796;52.388;13.096;2023-07-29T14:52:49;1.57;;;1.23;;
3563;SDS011;1796;52.388;13.096;2023-07-29T14:55:16;1.40;;;1.40;;
3563;SDS011;1796;52.388;13.096;2023-07-29T14:57:43;2.30;;;1.23;;
3563;SDS011;1796;52.388;13.096;2023-07-29T15:00:12;1.40;;;1.40;;
3563;SDS011;1796;52.388;13.096;2023-07-29T15:02:39;1.80;;;1.70;;
3563;SDS011;1796;52.388;13.096;2023-07-29T15:05:07;1.10;;;1.10;;